Time;durP1;ratioP1;P1;durP2;ratioP2;P2;SDS_P1;SDS_P2;PMS_P1;PMS_P2;Temp;Humidity;BMP_temperature;BMP_pressure;BME280_temperature;BME280_humidity;BME280_pressure;Samples;Min_cycle;Max_cycle;Signal;HPM_P1;HPM_P2
2024/02/12 00:00:35;;;;;;;6.43;3.17;;;7.90;99.90;;;;;;4926990;28;20371;-81
2024/02/12 00:03:02;;;;;;;3.22;1.88;;;7.80;99.90;;;;;;4912912;28;20039;-80
2024/02/12 00:05:28;;;;;;;10.88;4.53;;;7.80;99.90;;;;;;4928470;28;20143;-81
2024/02/12 00:07:54;;;;;;;7.85;3.83;;;7.70;99.90;;;;;;4929028;28;20126;-81
2024/02/12 00:10:20;;;;;;;6.28;3.80;;;7.60;99.90;;;;;;4911571;28;20098;-81
2024/02/12 00:12:45;;;;;;;5.75;2.50;;;7.70;99.90;;;;;;4912875;28;20156;-81
2024/02/12 00:15:12;;;;;;;5.75;3.13;;;7.60;99.90;;;;;;4909575;28;20087;-81
2024/02/12 00:17:40;;;;;;;5.18;2.83;;;7.70;99.90;;;;;;4926434;28;20054;-81
2024/02/12 00:20:10;;;;;;;7.32;3.30;;;7.60;99.90;;;;;;4911792;28;20019;-81
2024/02/12 00:22:36;;;;;;;6.03;3.85;;;7.60;99.90;;;;;;4915808;28;20038;-81
2024/02/12 00:25:05;;;;;;;10.43;4.72;;;7.60;99.90;;;;;;4913685;28;20389;-81
2024/02/12 00:27:34;;;;;;;15.07;7.68;;;7.50;99.90;;;;;;4908358;28;20271;-81
2024/02/12 00:30:00;;;;;;;9.07;3.97;;;7.60;99.90;;;;;;4926972;28;20042;-81
2024/02/12 00:32:28;;;;;;;10.75;4.85;;;7.50;99.90;;;;;;4937995;28;20501;-81
2024/02/12 00:34:57;;;;;;;9.35;4.90;;;7.40;99.90;;;;;;4935821;28;20482;-81
2024/02/12 00:37:25;;;;;;;8.13;4.78;;;7.50;99.90;;;;;;4921001;28;20397;-81
2024/02/12 00:39:53;;;;;;;7.32;4.32;;;7.50;99.90;;;;;;4926206;28;20034;-81
2024/02/12 00:42:19;;;;;;;7.13;3.95;;;7.40;99.90;;;;;;4907984;28;20034;-81
2024/02/12 00:44:45;;;;;;;7.07;3.72;;;7.40;99.90;;;;;;4922134;28;20562;-81
2024/02/12 00:47:10;;;;;;;8.05;4.20;;;7.40;99.90;;;;;;4918158;28;20104;-81
2024/02/12 00:49:38;;;;;;;7.95;4.07;;;7.40;99.90;;;;;;4935965;28;20030;-81
2024/02/12 00:52:07;;;;;;;7.25;4.00;;;7.40;99.90;;;;;;4907457;28;20036;-80
2024/02/12 00:54:35;;;;;;;6.10;3.35;;;7.40;99.90;;;;;;4918126;28;20036;-81
2024/02/12 00:57:00;;;;;;;6.13;4.10;;;7.40;99.90;;;;;;4914926;28;20129;-80
2024/02/12 00:59:26;;;;;;;11.18;4.82;;;7.40;99.90;;;;;;4908952;28;20067;-80
2024/02/12 01:01:52;;;;;;;5.90;4.35;;;7.60;99.90;;;;;;4925268;28;20581;-81
2024/02/12 01:04:19;;;;;;;7.00;4.63;;;7.50;99.90;;;;;;4901864;28;20039;-81
2024/02/12 01:06:44;;;;;;;11.00;5.70;;;7.60;99.90;;;;;;4928083;28;20034;-81
2024/02/12 01:09:12;;;;;;;6.47;4.65;;;7.50;99.90;;;;;;4936521;28;20039;-81
2024/02/12 01:11:38;;;;;;;8.27;5.82;;;7.50;99.90;;;;;;4910778;28;20493;-81
2024/02/12 01:14:04;;;;;;;4.28;2.65;;;7.50;99.90;;;;;;4923406;28;21163;-81
2024/02/12 01:16:32;;;;;;;7.78;5.30;;;7.60;99.90;;;;;;4907401;28;20042;-80
2024/02/12 01:18:58;;;;;;;8.55;6.05;;;7.50;99.90;;;;;;4920601;28;20039;-80
2024/02/12 01:21:25;;;;;;;8.68;4.57;;;7.50;99.90;;;;;;4913309;28;20035;-81
2024/02/12 01:23:51;;;;;;;10.52;6.35;;;7.50;99.90;;;;;;4906721;28;20044;-82
2024/02/12 01:26:16;;;;;;;9.38;6.32;;;7.50;99.90;;;;;;4912100;28;20472;-82
2024/02/12 01:28:42;;;;;;;11.80;6.97;;;7.50;99.90;;;;;;4923488;28;20505;-82
2024/02/12 01:31:15;;;;;;;11.15;6.35;;;7.50;99.90;;;;;;4908236;28;20257;-82
2024/02/12 01:33:40;;;;;;;11.27;6.47;;;7.50;99.90;;;;;;4925052;28;20634;-82
2024/02/12 01:36:07;;;;;;;8.32;5.13;;;7.50;99.90;;;;;;4908599;28;20166;-82
2024/02/12 01:38:33;;;;;;;13.73;7.65;;;7.60;99.90;;;;;;4908984;28;20084;-82
2024/02/12 01:40:59;;;;;;;13.30;7.93;;;7.60;99.90;;;;;;4919710;28;20396;-80
2024/02/12 01:43:31;;;;;;;9.60;6.72;;;7.60;99.90;;;;;;4908015;28;20032;-80
2024/02/12 01:46:00;;;;;;;13.98;7.63;;;7.60;99.90;;;;;;4909917;28;20534;-80
2024/02/12 01:48:30;;;;;;;7.38;4.43;;;7.60;99.90;;;;;;4920549;28;20043;-80
2024/02/12 01:50:56;;;;;;;6.75;4.25;;;7.60;99.90;;;;;;4924453;28;20038;-80
2024/02/12 01:53:22;;;;;;;8.90;4.95;;;7.60;99.90;;;;;;4908314;28;20126;-80
2024/02/12 01:55:48;;;;;;;12.98;6.70;;;7.60;99.90;;;;;;4910426;28;20527;-80
2024/02/12 01:58:14;;;;;;;13.70;7.05;;;7.70;99.90;;;;;;4906487;28;20067;-80
2024/02/12 02:00:42;;;;;;;12.77;6.53;;;7.60;99.90;;;;;;4925479;28;20035;-80
2024/02/12 02:03:08;;;;;;;2.88;2.22;;;7.70;99.90;;;;;;4907281;28;20481;-81
2024/02/12 02:05:35;;;;;;;8.90;5.47;;;7.70;99.90;;;;;;4921867;28;20028;-80
2024/02/12 02:08:01;;;;;;;8.38;6.15;;;7.80;99.90;;;;;;4922621;28;20031;-81
2024/02/12 02:10:27;;;;;;;7.88;5.25;;;7.70;99.90;;;;;;4921142;28;20038;-82
2024/02/12 02:12:53;;;;;;;11.00;6.72;;;7.80;99.90;;;;;;4908383;29;20042;-80
2024/02/12 02:15:19;;;;;;;11.10;7.05;;;7.80;99.90;;;;;;4910683;28;20441;-80
2024/02/12 02:17:45;;;;;;;17.17;7.55;;;7.80;99.90;;;;;;4940580;28;20035;-80
2024/02/12 02:20:12;;;;;;;16.98;9.35;;;7.90;99.90;;;;;;4918647;28;20028;-81
2024/02/12 02:22:40;;;;;;;14.60;7.65;;;7.80;99.90;;;;;;4922264;28;20046;-80
2024/02/12 02:25:09;;;;;;;19.27;11.82;;;7.80;99.90;;;;;;4909279;28;20020;-80
2024/02/12 02:27:34;;;;;;;12.15;8.18;;;7.80;99.90;;;;;;4912696;29;20044;-80
2024/02/12 02:30:07;;;;;;;14.32;7.35;;;7.90;99.90;;;;;;4904405;28;20032;-80
2024/02/12 02:32:35;;;;;;;18.10;10.70;;;7.90;99.90;;;;;;4921736;28;20465;-80
2024/02/12 02:35:01;;;;;;;16.60;9.82;;;7.80;99.90;;;;;;4937823;28;20039;-80
2024/02/12 02:37:27;;;;;;;14.02;9.30;;;7.80;99.90;;;;;;4926781;28;20152;-80
2024/02/12 02:39:52;;;;;;;21.33;11.60;;;7.80;99.90;;;;;;4907567;28;20187;-81
2024/02/12 02:42:18;;;;;;;16.50;8.90;;;7.80;99.90;;;;;;4927169;28;20039;-81
2024/02/12 02:44:44;;;;;;;19.98;11.50;;;7.80;99.90;;;;;;4910781;28;20053;-80
2024/02/12 02:47:10;;;;;;;21.33;13.13;;;7.80;99.90;;;;;;4921130;28;20039;-80
2024/02/12 02:49:36;;;;;;;20.35;11.80;;;7.80;99.90;;;;;;4925711;28;20532;-80
2024/02/12 02:52:02;;;;;;;22.20;12.65;;;7.90;99.90;;;;;;4913212;28;20024;-81
2024/02/12 02:54:28;;;;;;;26.35;14.77;;;7.80;99.90;;;;;;4939120;28;20036;-80
2024/02/12 02:56:57;;;;;;;28.27;14.25;;;7.80;99.90;;;;;;4908916;28;20040;-80
2024/02/12 02:59:23;;;;;;;25.90;13.02;;;7.90;99.90;;;;;;4940832;28;20417;-80
2024/02/12 03:01:48;;;;;;;30.17;16.77;;;7.80;99.90;;;;;;4936869;28;20028;-80
2024/02/12 03:04:14;;;;;;;29.08;13.93;;;7.80;99.90;;;;;;4926714;28;20054;-80
2024/02/12 03:06:41;;;;;;;26.83;14.73;;;7.80;99.90;;;;;;4925720;28;20114;-80
2024/02/12 03:09:07;;;;;;;38.22;16.80;;;7.80;99.90;;;;;;4910574;29;20035;-81
2024/02/12 03:11:36;;;;;;;34.72;17.17;;;7.80;99.90;;;;;;4920796;28;20174;-79
2024/02/12 03:14:02;;;;;;;35.17;17.83;;;7.80;99.90;;;;;;4909491;28;20456;-80
2024/02/12 03:16:28;;;;;;;35.90;20.27;;;7.90;99.90;;;;;;4912221;28;20093;-81
2024/02/12 03:18:54;;;;;;;29.23;16.27;;;7.80;99.90;;;;;;4924431;28;20039;-79
2024/02/12 03:21:20;;;;;;;32.15;19.50;;;7.80;99.90;;;;;;4928171;28;20054;-80
2024/02/12 03:23:49;;;;;;;33.72;20.05;;;7.80;99.90;;;;;;4928580;28;20028;-80
2024/02/12 03:26:17;;;;;;;38.45;20.48;;;7.80;99.90;;;;;;4929488;28;20040;-81
2024/02/12 03:28:43;;;;;;;27.48;14.77;;;7.80;99.90;;;;;;4926360;28;20040;-81
2024/02/12 03:31:09;;;;;;;34.90;19.42;;;7.90;99.90;;;;;;4944215;28;20106;-81
2024/02/12 03:33:36;;;;;;;34.60;17.45;;;7.90;99.90;;;;;;4943120;28;20028;-81
2024/02/12 03:36:01;;;;;;;45.30;22.88;;;7.80;99.90;;;;;;4927334;28;20118;-81
2024/02/12 03:38:30;;;;;;;27.98;15.68;;;7.80;99.90;;;;;;4929022;28;20174;-80
2024/02/12 03:40:56;;;;;;;43.58;24.10;;;7.90;99.90;;;;;;4928835;28;20035;-80
2024/02/12 03:43:24;;;;;;;37.10;18.90;;;7.80;99.90;;;;;;4909938;28;20042;-80
2024/02/12 03:45:55;;;;;;;34.58;18.92;;;7.80;99.90;;;;;;4927411;28;20393;-80
2024/02/12 04:02:07;;;;;;;28.38;13.65;;;7.90;99.90;;;;;;4930534;28;20154;-81
2024/02/12 04:04:33;;;;;;;42.05;22.70;;;7.80;99.90;;;;;;4915933;28;20097;-81
2024/02/12 04:07:00;;;;;;;32.08;15.23;;;7.80;99.90;;;;;;4944482;28;20421;-81
2024/02/12 04:09:26;;;;;;;40.60;22.48;;;7.80;99.90;;;;;;4940581;28;20168;-81
2024/02/12 04:11:52;;;;;;;34.83;17.88;;;7.80;99.90;;;;;;4923326;28;20057;-81
2024/02/12 04:14:18;;;;;;;38.55;20.25;;;7.80;99.90;;;;;;4922969;28;20038;-81
2024/02/12 04:16:51;;;;;;;40.55;22.00;;;7.70;99.90;;;;;;4929134;28;20572;-82
2024/02/12 04:19:22;;;;;;;34.53;18.48;;;7.70;99.90;;;;;;4926685;28;20123;-81
2024/02/12 04:21:49;;;;;;;29.77;17.10;;;7.70;99.90;;;;;;4926872;28;20043;-81
2024/02/12 04:24:15;;;;;;;38.50;19.58;;;7.70;99.90;;;;;;4939295;28;20055;-81
2024/02/12 04:26:40;;;;;;;31.08;15.77;;;7.70;99.90;;;;;;4927989;28;20062;-82
2024/02/12 04:29:07;;;;;;;30.55;15.93;;;7.70;99.90;;;;;;4911394;28;20078;-81
2024/02/12 04:31:35;;;;;;;37.40;19.92;;;7.70;99.90;;;;;;4946606;28;20035;-81
2024/02/12 04:34:01;;;;;;;33.60;16.27;;;7.80;99.90;;;;;;4940694;28;20117;-81
2024/02/12 04:36:26;;;;;;;35.53;18.58;;;7.70;99.90;;;;;;4924790;28;20126;-81
2024/02/12 04:38:52;;;;;;;30.60;16.13;;;7.70;99.90;;;;;;4943588;28;20032;-81
2024/02/12 04:41:19;;;;;;;32.28;18.17;;;7.70;99.90;;;;;;4941372;28;20062;-81
2024/02/12 04:43:46;;;;;;;29.90;14.23;;;7.60;99.90;;;;;;4939858;28;20035;-81
2024/02/12 04:46:11;;;;;;;25.17;15.38;;;7.50;99.90;;;;;;4927184;28;20497;-81
2024/02/12 04:48:37;;;;;;;28.30;16.10;;;7.70;99.90;;;;;;4927811;28;20031;-81
2024/02/12 04:51:03;;;;;;;30.42;15.70;;;7.60;99.90;;;;;;4923063;28;20056;-81
2024/02/12 04:53:29;;;;;;;32.00;14.93;;;7.60;99.90;;;;;;4942188;28;20031;-81
2024/02/12 04:55:55;;;;;;;28.20;15.23;;;7.60;99.90;;;;;;4924858;28;20042;-82
2024/02/12 04:58:22;;;;;;;26.92;16.08;;;7.60;99.90;;;;;;4941447;28;20047;-81
2024/02/12 05:00:48;;;;;;;31.33;16.27;;;7.60;99.90;;;;;;4925042;28;20061;-81
2024/02/12 05:03:15;;;;;;;29.60;15.45;;;7.60;99.90;;;;;;4923420;28;20028;-81
2024/02/12 05:05:41;;;;;;;27.10;16.23;;;7.60;99.90;;;;;;4913543;28;20114;-81
2024/02/12 05:08:07;;;;;;;21.35;12.50;;;7.70;99.90;;;;;;4914306;28;20467;-81
2024/02/12 05:10:33;;;;;;;17.75;10.25;;;7.70;99.90;;;;;;4926709;28;20752;-81
2024/02/12 05:12:59;;;;;;;23.52;11.93;;;7.60;99.90;;;;;;4942484;28;20509;-82
2024/02/12 05:15:25;;;;;;;25.40;12.40;;;7.60;99.90;;;;;;4938093;28;20032;-81
2024/02/12 05:23:21;;;;;;;21.50;10.15;;;7.60;99.90;;;;;;4940124;28;20043;-81
2024/02/12 05:25:47;;;;;;;28.83;14.60;;;7.60;99.90;;;;;;4940666;28;20032;-81
2024/02/12 05:28:12;;;;;;;35.70;17.83;;;7.50;99.90;;;;;;4925333;28;20024;-81
2024/02/12 05:30:38;;;;;;;38.72;19.33;;;7.60;99.90;;;;;;4941906;28;20186;-81
2024/02/12 05:33:06;;;;;;;32.22;16.17;;;7.50;99.90;;;;;;4923741;28;20062;-81
2024/02/12 05:35:32;;;;;;;31.67;18.77;;;7.50;99.90;;;;;;4926599;28;20031;-81
2024/02/12 05:37:58;;;;;;;31.20;16.05;;;7.50;99.90;;;;;;4924322;28;20035;-81
2024/02/12 05:40:23;;;;;;;40.47;19.27;;;7.40;99.90;;;;;;4910982;28;20031;-81
2024/02/12 05:42:49;;;;;;;41.30;21.90;;;7.40;99.90;;;;;;4940297;28;20031;-81
2024/02/12 05:45:15;;;;;;;35.50;18.98;;;7.10;99.90;;;;;;4921786;28;20024;-81
2024/02/12 05:47:41;;;;;;;43.47;22.77;;;7.20;99.90;;;;;;4942089;28;20039;-81
2024/02/12 05:50:07;;;;;;;36.00;19.45;;;7.10;99.90;;;;;;4907080;28;20078;-81
2024/02/12 05:52:33;;;;;;;37.58;20.13;;;7.20;99.90;;;;;;4912084;28;20063;-81
2024/02/12 05:54:59;;;;;;;42.42;19.23;;;7.20;99.90;;;;;;4911604;28;20035;-81
2024/02/12 05:57:25;;;;;;;28.02;14.73;;;7.10;99.90;;;;;;4937714;28;20031;-81
2024/02/12 05:59:50;;;;;;;26.30;14.07;;;7.10;99.90;;;;;;4941108;28;20031;-81
2024/02/12 06:02:16;;;;;;;30.73;16.67;;;7.20;99.90;;;;;;4923827;28;20062;-81
2024/02/12 06:04:42;;;;;;;31.52;18.15;;;7.10;99.90;;;;;;4926265;28;20030;-81
2024/02/12 06:07:08;;;;;;;32.80;17.20;;;7.10;99.90;;;;;;4926611;28;20135;-80
2024/02/12 06:09:35;;;;;;;28.67;17.02;;;7.10;99.90;;;;;;4940307;28;20542;-81
2024/02/12 06:12:00;;;;;;;35.17;18.33;;;7.20;99.90;;;;;;4908675;28;20151;-81
2024/02/12 06:14:26;;;;;;;28.02;16.25;;;7.30;99.90;;;;;;4911388;28;20118;-80
2024/02/12 06:16:51;;;;;;;23.45;14.85;;;7.30;99.90;;;;;;4923779;28;20028;-81
2024/02/12 06:19:17;;;;;;;31.25;17.75;;;7.30;99.90;;;;;;4907575;28;20096;-81
2024/02/12 06:21:44;;;;;;;40.33;19.88;;;7.30;99.90;;;;;;4927443;28;20040;-81
2024/02/12 06:24:11;;;;;;;35.90;17.58;;;7.20;99.90;;;;;;4925621;28;20058;-81
2024/02/12 06:26:38;;;;;;;43.08;21.27;;;7.10;99.90;;;;;;4925182;28;20408;-81
2024/02/12 06:29:04;;;;;;;35.42;18.65;;;7.10;99.90;;;;;;4938401;28;20039;-81
2024/02/12 06:31:31;;;;;;;38.10;19.02;;;7.00;99.90;;;;;;4920005;28;20027;-81
2024/02/12 06:33:57;;;;;;;45.13;23.67;;;6.80;99.90;;;;;;4910658;28;20991;-80
2024/02/12 06:36:23;;;;;;;45.67;22.48;;;6.80;99.90;;;;;;4946736;28;20039;-80
2024/02/12 06:38:48;;;;;;;43.10;23.90;;;6.80;99.90;;;;;;4922404;28;20035;-80
2024/02/12 06:41:14;;;;;;;52.83;26.67;;;6.80;99.90;;;;;;4925029;28;20489;-80
2024/02/12 06:43:40;;;;;;;56.05;25.92;;;6.80;99.90;;;;;;4940206;28;20024;-80
2024/02/12 06:46:06;;;;;;;45.88;23.17;;;6.80;99.90;;;;;;4938627;28;20024;-80
2024/02/12 06:48:31;;;;;;;43.83;20.75;;;6.90;99.90;;;;;;4911369;28;20059;-81
2024/02/12 06:51:00;;;;;;;59.15;29.45;;;6.90;99.90;;;;;;4935758;28;20060;-81
2024/02/12 06:53:25;;;;;;;48.47;22.15;;;6.80;99.90;;;;;;4910384;28;20043;-80
2024/02/12 06:55:51;;;;;;;35.95;17.10;;;6.90;99.90;;;;;;4912997;28;20043;-80
2024/02/12 06:58:16;;;;;;;47.05;24.70;;;6.90;99.90;;;;;;4940932;28;20535;-81
2024/02/12 07:00:42;;;;;;;33.42;14.02;;;7.00;99.90;;;;;;4943087;28;20103;-80
2024/02/12 07:03:08;;;;;;;40.20;21.70;;;7.00;99.90;;;;;;4909926;28;20090;-81
2024/02/12 07:05:33;;;;;;;38.40;21.17;;;7.00;99.90;;;;;;4925083;28;20043;-80
2024/02/12 07:08:01;;;;;;;49.50;22.15;;;7.00;99.90;;;;;;4930074;28;20061;-80
2024/02/12 07:10:27;;;;;;;43.95;20.10;;;6.90;99.90;;;;;;4926003;28;20055;-79
2024/02/12 07:12:53;;;;;;;33.35;14.40;;;6.90;99.90;;;;;;4924822;28;20071;-79
2024/02/12 07:15:19;;;;;;;46.42;23.73;;;7.00;99.90;;;;;;4927878;28;20055;-80
2024/02/12 07:17:46;;;;;;;46.45;21.20;;;7.00;99.90;;;;;;4941441;28;20039;-80
2024/02/12 07:20:12;;;;;;;46.63;22.67;;;7.00;99.90;;;;;;4911589;28;20046;-80
2024/02/12 07:22:38;;;;;;;31.52;14.85;;;7.00;99.90;;;;;;4943502;28;20594;-80
2024/02/12 07:25:04;;;;;;;29.70;15.75;;;7.00;99.90;;;;;;4925011;28;20032;-80
2024/02/12 07:27:30;;;;;;;52.65;26.70;;;6.90;99.90;;;;;;4927318;28;20701;-80
2024/02/12 07:29:55;;;;;;;48.00;24.60;;;7.00;99.90;;;;;;4925587;28;20028;-80
2024/02/12 07:32:24;;;;;;;44.80;23.10;;;7.10;99.90;;;;;;4925126;28;20058;-80
2024/02/12 07:34:50;;;;;;;45.58;22.77;;;7.10;99.90;;;;;;4941660;28;20051;-81
2024/02/12 07:37:17;;;;;;;47.33;23.08;;;7.00;99.90;;;;;;4944121;28;20036;-81
2024/02/12 07:39:42;;;;;;;56.50;27.52;;;7.10;99.90;;;;;;4927042;28;20051;-81
2024/02/12 07:42:10;;;;;;;45.28;23.05;;;7.10;99.90;;;;;;4914701;28;20050;-80
2024/02/12 07:44:39;;;;;;;33.30;18.33;;;7.10;99.90;;;;;;4943192;28;20573;-81
2024/02/12 07:47:07;;;;;;;39.50;21.45;;;7.20;99.90;;;;;;4930632;28;20062;-82
2024/02/12 07:49:34;;;;;;;37.67;19.98;;;7.20;99.90;;;;;;4914737;28;20106;-81
2024/02/12 07:52:04;;;;;;;11.80;5.28;;;7.20;99.90;;;;;;4939094;28;20078;-81
2024/02/12 07:54:29;;;;;;;42.42;18.98;;;7.20;99.90;;;;;;4918066;28;20035;-81
2024/02/12 07:56:55;;;;;;;42.65;21.65;;;7.20;99.90;;;;;;4925033;28;20061;-81
2024/02/12 07:59:22;;;;;;;40.80;20.73;;;7.20;99.90;;;;;;4938146;28;20496;-81
2024/02/12 08:01:47;;;;;;;45.92;22.02;;;7.20;99.90;;;;;;4941954;28;20042;-81
2024/02/12 08:04:13;;;;;;;42.30;20.17;;;7.30;99.90;;;;;;4922753;28;20031;-81
2024/02/12 08:06:40;;;;;;;44.28;18.83;;;7.30;99.90;;;;;;4926121;28;20532;-81
2024/02/12 08:09:07;;;;;;;40.97;19.23;;;7.40;99.90;;;;;;4914881;28;20033;-82
2024/02/12 08:11:33;;;;;;;43.78;20.95;;;7.40;99.90;;;;;;4914152;28;20031;-81
2024/02/12 08:13:58;;;;;;;33.38;17.13;;;7.40;99.90;;;;;;4924015;28;20049;-81
2024/02/12 08:16:24;;;;;;;31.63;17.00;;;7.50;99.90;;;;;;4925444;28;20044;-81
2024/02/12 08:18:49;;;;;;;39.42;18.30;;;7.40;99.90;;;;;;4906179;28;20039;-81
2024/02/12 08:21:15;;;;;;;40.22;18.80;;;7.40;99.90;;;;;;4913324;28;20186;-80
2024/02/12 08:23:41;;;;;;;47.60;23.80;;;7.50;99.90;;;;;;4940899;28;20042;-81
2024/02/12 08:26:06;;;;;;;45.05;21.67;;;7.50;99.90;;;;;;4940617;28;20630;-80
2024/02/12 08:28:33;;;;;;;41.92;18.85;;;7.60;99.90;;;;;;4938842;28;20038;-80
2024/02/12 08:30:59;;;;;;;46.97;23.95;;;7.60;99.90;;;;;;4914205;28;20098;-81
2024/02/12 08:33:26;;;;;;;42.58;20.63;;;7.70;99.90;;;;;;4923411;28;20036;-81
2024/02/12 08:35:52;;;;;;;37.10;16.67;;;7.70;99.90;;;;;;4923283;28;20516;-80
2024/02/12 08:38:18;;;;;;;37.75;11.65;;;7.60;99.90;;;;;;4938319;28;20122;-80
2024/02/12 08:40:43;;;;;;;37.20;13.45;;;7.70;99.90;;;;;;4940475;28;20040;-80
2024/02/12 08:43:09;;;;;;;39.42;21.10;;;7.80;99.90;;;;;;4925714;28;20465;-81
2024/02/12 08:45:35;;;;;;;37.10;18.33;;;7.80;99.90;;;;;;4910607;28;20027;-80
2024/02/12 08:48:01;;;;;;;35.25;18.35;;;7.80;99.90;;;;;;4937757;28;20125;-80
2024/02/12 08:50:26;;;;;;;42.22;19.98;;;7.80;99.90;;;;;;4902415;28;20023;-80
2024/02/12 08:52:55;;;;;;;42.83;20.33;;;7.90;99.90;;;;;;4938493;28;20016;-81
2024/02/12 08:55:21;;;;;;;22.55;10.95;;;7.90;99.90;;;;;;4921550;28;20532;-80
2024/02/12 08:57:46;;;;;;;35.85;17.95;;;7.90;99.90;;;;;;4943196;28;20039;-80
2024/02/12 09:00:13;;;;;;;37.97;19.35;;;7.90;99.90;;;;;;4922716;28;20502;-80
2024/02/12 09:02:39;;;;;;;45.65;21.90;;;7.90;99.90;;;;;;4910311;28;20114;-80
2024/02/12 09:05:11;;;;;;;40.08;20.88;;;7.90;99.90;;;;;;4939611;28;20119;-81
2024/02/12 09:07:38;;;;;;;37.92;18.98;;;8.00;99.90;;;;;;4927236;28;20549;-80
2024/02/12 09:10:14;;;;;;;36.70;18.23;;;8.00;99.90;;;;;;4913467;28;20731;-80
2024/02/12 09:12:39;;;;;;;45.40;23.08;;;8.10;99.90;;;;;;4921540;28;20031;-79
2024/02/12 09:15:08;;;;;;;36.55;19.13;;;8.10;99.90;;;;;;4932281;28;20082;-80
2024/02/12 09:17:34;;;;;;;32.47;17.73;;;8.10;99.90;;;;;;4908135;28;20505;-80
2024/02/12 09:20:00;;;;;;;21.00;10.45;;;8.10;99.90;;;;;;4937035;28;20402;-80
2024/02/12 09:22:26;;;;;;;45.35;21.10;;;8.10;99.90;;;;;;4925239;28;20033;-80
2024/02/12 09:24:52;;;;;;;39.38;19.98;;;8.20;99.90;;;;;;4941303;28;20514;-80
2024/02/12 09:27:17;;;;;;;36.47;18.77;;;8.30;99.90;;;;;;4940271;28;20488;-80
2024/02/12 09:29:55;;;;;;;44.35;20.38;;;8.20;99.90;;;;;;4924201;28;20508;-80
2024/02/12 09:32:21;;;;;;;31.40;16.23;;;8.30;99.90;;;;;;4911684;28;20570;-80
2024/02/12 09:34:46;;;;;;;35.58;15.85;;;8.30;99.90;;;;;;4924097;28;20027;-80
2024/02/12 09:37:12;;;;;;;32.70;18.45;;;8.30;99.90;;;;;;4914270;28;20019;-80
2024/02/12 09:39:37;;;;;;;35.60;17.02;;;8.30;99.90;;;;;;4922168;28;20189;-79
2024/02/12 09:42:04;;;;;;;30.10;16.08;;;8.20;99.90;;;;;;4939896;28;20117;-79
2024/02/12 09:44:30;;;;;;;37.38;19.60;;;8.20;99.90;;;;;;4920445;28;20038;-80
2024/02/12 09:47:04;;;;;;;38.80;20.33;;;8.20;99.90;;;;;;4912296;28;20559;-79
2024/02/12 09:49:30;;;;;;;33.00;18.00;;;8.30;99.90;;;;;;4905713;28;20493;-80
2024/02/12 09:51:56;;;;;;;40.20;22.60;;;8.30;99.90;;;;;;4939480;28;20031;-80
2024/02/12 09:54:22;;;;;;;34.03;16.00;;;8.30;99.90;;;;;;4924770;28;20079;-80
2024/02/12 09:56:47;;;;;;;30.55;16.67;;;8.30;99.90;;;;;;4938975;28;20127;-80
2024/02/12 09:59:13;;;;;;;33.67;18.08;;;8.40;99.90;;;;;;4925622;28;20589;-80
2024/02/12 10:01:41;;;;;;;36.80;20.27;;;8.40;99.90;;;;;;4930569;28;20031;-80
2024/02/12 10:04:07;;;;;;;40.25;20.88;;;8.50;99.90;;;;;;4920331;28;20027;-80
2024/02/12 10:06:32;;;;;;;39.50;20.15;;;8.40;99.90;;;;;;4927529;28;20579;-80
2024/02/12 10:09:08;;;;;;;31.33;18.67;;;8.40;99.90;;;;;;4917438;28;20035;-79
2024/02/12 10:11:34;;;;;;;28.85;17.27;;;8.30;99.90;;;;;;4939388;28;20082;-80
2024/02/12 10:14:05;;;;;;;30.35;17.60;;;8.30;99.90;;;;;;4937623;28;20032;-80
2024/02/12 10:16:31;;;;;;;31.05;17.88;;;8.30;99.90;;;;;;4926150;28;20263;-79
2024/02/12 10:19:00;;;;;;;33.60;18.73;;;8.40;99.90;;;;;;4924619;28;20091;-80
2024/02/12 10:21:26;;;;;;;31.15;17.13;;;8.30;99.90;;;;;;4925503;28;20375;-80
2024/02/12 10:23:51;;;;;;;27.92;15.80;;;8.30;99.90;;;;;;4928514;28;20026;-80
2024/02/12 10:26:23;;;;;;;29.95;14.70;;;8.30;99.90;;;;;;4926117;28;20050;-79
2024/02/12 10:28:53;;;;;;;31.48;16.27;;;8.30;99.90;;;;;;4929655;28;20066;-81
2024/02/12 10:31:19;;;;;;;30.95;18.63;;;8.30;99.90;;;;;;4928187;28;20059;-81
2024/02/12 10:33:45;;;;;;;23.50;11.60;;;8.30;99.90;;;;;;4914835;28;20557;-81
2024/02/12 10:36:11;;;;;;;26.98;15.65;;;8.30;99.90;;;;;;4928277;28;20058;-81
2024/02/12 10:38:36;;;;;;;30.88;16.75;;;8.40;99.90;;;;;;4945366;28;20489;-80
2024/02/12 10:41:16;;;;;;;29.40;16.73;;;8.40;99.90;;;;;;4940994;28;20047;-80
2024/02/12 10:43:42;;;;;;;29.02;17.42;;;8.50;99.90;;;;;;4944153;28;20045;-80
2024/02/12 10:46:08;;;;;;;26.33;14.35;;;8.50;99.90;;;;;;4915750;28;20390;-81
2024/02/12 10:48:34;;;;;;;34.95;19.20;;;8.60;99.90;;;;;;4928091;28;20027;-80
2024/02/12 10:51:02;;;;;;;41.83;20.55;;;8.60;99.90;;;;;;4929388;28;20036;-81
2024/02/12 10:53:30;;;;;;;34.35;18.40;;;8.70;99.90;;;;;;4930522;28;20138;-80
2024/02/12 10:55:55;;;;;;;34.70;22.02;;;8.70;99.90;;;;;;4928807;28;20035;-81
2024/02/12 10:58:21;;;;;;;38.33;21.83;;;8.70;99.90;;;;;;4929542;28;20387;-81
2024/02/12 11:00:55;;;;;;;36.38;22.13;;;8.70;99.90;;;;;;4946536;28;20482;-81
2024/02/12 11:03:36;;;;;;;40.92;20.08;;;8.70;99.90;;;;;;4932552;28;20548;-80
2024/02/12 11:06:04;;;;;;;36.47;18.58;;;8.60;99.90;;;;;;4935518;28;20508;-81
2024/02/12 11:08:34;;;;;;;18.98;11.10;;;8.60;99.90;;;;;;4925108;28;20045;-80
2024/02/12 11:11:00;;;;;;;25.13;13.68;;;8.60;99.90;;;;;;4931430;28;20035;-81
2024/02/12 11:13:34;;;;;;;28.00;17.90;;;8.50;99.90;;;;;;4930790;28;20035;-81
2024/02/12 11:16:00;;;;;;;27.33;16.58;;;8.50;99.90;;;;;;4930153;28;20035;-80
2024/02/12 11:18:26;;;;;;;22.58;12.90;;;8.50;99.90;;;;;;4927279;28;20040;-81
2024/02/12 11:20:54;;;;;;;18.27;10.05;;;8.50;99.90;;;;;;4924806;28;20437;-81
2024/02/12 11:23:23;;;;;;;28.50;16.58;;;8.50;99.90;;;;;;4928421;28;20039;-80
2024/02/12 11:25:49;;;;;;;22.63;13.15;;;8.60;99.90;;;;;;4928290;28;20557;-80
2024/02/12 11:28:15;;;;;;;14.30;8.00;;;8.60;99.90;;;;;;4940354;28;20036;-80
2024/02/12 11:30:42;;;;;;;29.25;13.98;;;8.60;99.90;;;;;;4917553;28;20031;-80
2024/02/12 11:33:08;;;;;;;26.27;14.20;;;8.60;99.90;;;;;;4929259;28;20035;-81
2024/02/12 11:35:34;;;;;;;25.10;13.95;;;8.70;99.90;;;;;;4928172;28;20063;-80
2024/02/12 11:38:00;;;;;;;24.10;13.60;;;8.90;99.90;;;;;;4928396;28;20070;-80
2024/02/12 11:40:26;;;;;;;24.65;12.55;;;8.80;99.90;;;;;;4917023;28;20042;-80
2024/02/12 11:42:52;;;;;;;16.52;9.65;;;8.80;99.90;;;;;;4932499;28;20133;-80
2024/02/12 11:45:18;;;;;;;19.85;11.75;;;8.90;99.90;;;;;;4928303;28;20032;-80
2024/02/12 11:47:46;;;;;;;18.23;10.77;;;9.00;99.90;;;;;;4946080;28;21260;-81
2024/02/12 11:50:24;;;;;;;24.33;13.63;;;9.10;99.90;;;;;;4919831;28;20118;-82
2024/02/12 11:52:53;;;;;;;21.33;12.82;;;9.20;99.90;;;;;;4922859;28;20472;-82
2024/02/12 11:55:19;;;;;;;21.63;12.32;;;9.20;99.90;;;;;;4921333;28;20455;-81
2024/02/12 11:57:46;;;;;;;10.00;5.78;;;9.20;99.90;;;;;;4929978;28;20049;-82
2024/02/12 12:00:20;;;;;;;17.55;10.02;;;9.20;99.90;;;;;;4931274;28;20031;-82
2024/02/12 12:02:47;;;;;;;19.95;10.63;;;9.20;99.90;;;;;;4929872;28;20058;-81
2024/02/12 12:05:15;;;;;;;15.60;9.60;;;9.10;99.90;;;;;;4929634;28;20027;-81
2024/02/12 12:07:41;;;;;;;17.73;8.05;;;9.20;99.90;;;;;;4945099;28;20035;-81
2024/02/12 12:10:10;;;;;;;17.58;8.65;;;9.20;99.90;;;;;;4916603;28;20027;-81
2024/02/12 12:12:41;;;;;;;13.35;7.55;;;9.20;99.90;;;;;;4927527;28;20474;-81
2024/02/12 12:15:07;;;;;;;13.88;7.45;;;9.20;99.90;;;;;;4922134;28;20028;-81
2024/02/12 12:17:33;;;;;;;15.40;7.43;;;9.30;99.90;;;;;;4914558;29;20024;-82
2024/02/12 12:20:00;;;;;;;22.50;8.35;;;9.30;99.90;;;;;;4945631;28;20032;-81
2024/02/12 12:22:29;;;;;;;12.25;7.03;;;9.30;99.90;;;;;;4944933;28;20118;-81
2024/02/12 12:24:54;;;;;;;14.20;7.55;;;9.30;99.90;;;;;;4931491;28;20023;-82
2024/02/12 12:27:27;;;;;;;17.08;7.28;;;9.30;99.90;;;;;;4914759;28;20031;-81
2024/02/12 12:29:53;;;;;;;10.38;6.80;;;9.20;99.90;;;;;;4919903;28;20039;-82
2024/02/12 12:32:18;;;;;;;11.95;7.07;;;9.20;99.90;;;;;;4912753;28;20039;-81
2024/02/12 12:34:44;;;;;;;12.80;6.60;;;9.20;99.90;;;;;;4944872;28;20036;-82
2024/02/12 12:37:13;;;;;;;10.07;6.43;;;9.20;99.90;;;;;;4930334;28;20106;-81
2024/02/12 12:39:39;;;;;;;13.73;6.47;;;9.20;99.90;;;;;;4933828;28;20035;-81
2024/02/12 12:42:07;;;;;;;11.25;6.88;;;9.30;99.90;;;;;;4944897;28;20422;-81
2024/02/12 12:44:34;;;;;;;10.25;6.15;;;9.30;99.90;;;;;;4929371;28;20035;-81
2024/02/12 12:47:00;;;;;;;7.07;3.55;;;9.30;99.90;;;;;;4916119;28;20031;-81
2024/02/12 12:49:26;;;;;;;9.35;5.55;;;9.50;99.90;;;;;;4928441;28;20042;-81
2024/02/12 12:51:54;;;;;;;11.07;5.22;;;9.50;99.90;;;;;;4915321;28;20043;-81
2024/02/12 12:54:21;;;;;;;12.10;5.35;;;9.60;99.90;;;;;;4928693;28;20023;-81
2024/02/12 12:56:51;;;;;;;15.20;6.20;;;9.60;99.90;;;;;;4945098;28;20123;-81